Terminal Aerodrome Forecast
Issued by NWS

Home | Current Version | Previous Version | Text Only | Print | Product List | Glossary On
Versions: 1 2 3 4 5 6 7 8 9 10 11 12 13 14 15 16 17
235
FTUS43 KJKL 151734
TAFSME
TAF
KSME 151734Z 1518/1618 21011G18KT P6SM SCT050 BKN070
     FM160300 22005KT P6SM OVC070
     FM160500 24005KT 6SM -SN OVC025
     FM160700 28007G15KT 3SM -SN OVC010
     FM161600 28005KT 2SM -SHSN OVC010=

USA.gov is the U.S. government's official web portal to all federal, state and local government web resources and services.